WXM80 ListenWXM80 Stop

You find our weather info also at:

UK Metoffice

WeatherCloud

Weather Underground

Northeastern Weather Network

AWEKAS

Citizen Weather Observer Program (CWOP)

HAMweather, WeatherForYou, PWS Weather


Weather Underground History page Text

Daily Summary for May 7, 2016 Units:  English    Metric   Both
« Previous Day
Next Day »
Daily Weekly Monthly Yearly Custom
  High: Low: Average:
Temperature: 54.6 °F 48.1 °F 50.7 °F
Dew Point: 52.3 °F 47.3 °F 49.3 °F
Humidity: 98 % 89 % 95 %
Wind Speed: 8.8 mph 0.0 mph 2.5 mph
Wind Gust: 12.0 mph - -
Wind:- - ENE
Pressure: 29.82 in 29.71 in -
Precipitation: 0.01 in    
Historical Graphs
 
 
Tabular Data for May 7, 2016
Time Temperature Dew Point Pressure Wind Wind Speed Wind Gust Humidity Rainfall Rate (Hourly)
00:00 49.1 °F 48.0 °F 29.81 in East 1.8 mph 4.6 mph 96 % 0.00 in
00:05 49.1 °F 48.0 °F 29.81 in ENE 2.0 mph 3.5 mph 96 % 0.00 in
00:10 49.1 °F 48.0 °F 29.81 in ENE 1.8 mph 3.5 mph 96 % 0.00 in
00:15 49.0 °F 48.2 °F 29.81 in East 2.6 mph 5.0 mph 97 % 0.00 in
00:20 49.0 °F 48.2 °F 29.81 in East 3.0 mph 4.6 mph 97 % 0.00 in
00:25 49.0 °F 48.2 °F 29.81 in ENE 2.3 mph 4.0 mph 97 % 0.00 in
00:30 49.0 °F 48.2 °F 29.81 in ENE 1.9 mph 3.5 mph 97 % 0.00 in
00:35 49.1 °F 48.3 °F 29.82 in ENE 2.3 mph 3.5 mph 97 % 0.00 in
00:40 49.0 °F 48.2 °F 29.82 in East 2.3 mph 3.5 mph 97 % 0.00 in
00:45 49.0 °F 48.2 °F 29.81 in East 2.4 mph 3.5 mph 97 % 0.00 in
00:51 49.1 °F 48.3 °F 29.81 in East 2.3 mph 3.5 mph 97 % 0.00 in
00:56 49.0 °F 48.2 °F 29.80 in ENE 2.1 mph 3.5 mph 97 % 0.00 in
01:01 49.0 °F 48.2 °F 29.81 in East 2.4 mph 5.0 mph 97 % 0.00 in
01:06 49.0 °F 48.2 °F 29.81 in East 1.8 mph 3.5 mph 97 % 0.00 in
01:11 49.0 °F 48.2 °F 29.80 in East 2.2 mph 3.5 mph 97 % 0.00 in
01:16 49.0 °F 48.2 °F 29.80 in East 1.7 mph 2.3 mph 97 % 0.00 in
01:21 49.0 °F 48.2 °F 29.80 in East 2.2 mph 3.5 mph 97 % 0.00 in
01:26 49.0 °F 48.2 °F 29.80 in East 3.0 mph 4.6 mph 97 % 0.00 in
01:31 49.0 °F 48.2 °F 29.80 in East 2.9 mph 4.6 mph 97 % 0.00 in
01:36 49.0 °F 48.2 °F 29.80 in East 2.8 mph 4.6 mph 97 % 0.00 in
01:42 48.9 °F 48.1 °F 29.80 in East 3.5 mph 5.8 mph 97 % 0.00 in
01:47 48.8 °F 48.0 °F 29.80 in East 2.8 mph 5.0 mph 97 % 0.00 in
01:52 48.7 °F 47.9 °F 29.80 in ESE 2.9 mph 3.5 mph 97 % 0.00 in
01:57 48.7 °F 47.9 °F 29.80 in East 1.7 mph 3.5 mph 97 % 0.00 in
02:02 48.7 °F 47.9 °F 29.79 in East 2.3 mph 3.5 mph 97 % 0.00 in
02:07 48.7 °F 47.9 °F 29.79 in East 2.1 mph 3.5 mph 97 % 0.00 in
02:12 48.6 °F 47.8 °F 29.80 in East 2.0 mph 4.6 mph 97 % 0.00 in
02:17 48.6 °F 47.8 °F 29.79 in East 1.3 mph 3.5 mph 97 % 0.00 in
02:22 48.6 °F 47.8 °F 29.79 in East 1.1 mph 2.3 mph 97 % 0.00 in
02:28 48.6 °F 47.8 °F 29.79 in East 1.2 mph 2.3 mph 97 % 0.00 in
02:33 48.6 °F 47.8 °F 29.79 in East 1.0 mph 2.3 mph 97 % 0.00 in
02:38 48.6 °F 47.8 °F 29.79 in East 0.5 mph 1.2 mph 97 % 0.00 in
02:43 48.6 °F 47.8 °F 29.79 in East 0.3 mph 2.0 mph 97 % 0.00 in
02:48 48.6 °F 47.8 °F 29.79 in ENE 5.4 mph 10.4 mph 97 % 0.00 in
02:53 48.6 °F 47.8 °F 29.79 in NE 3.0 mph 8.1 mph 97 % 0.00 in
02:58 48.6 °F 47.8 °F 29.79 in ENE 3.7 mph 6.9 mph 97 % 0.00 in
03:03 48.5 °F 47.7 °F 29.79 in ENE 3.0 mph 9.2 mph 97 % 0.00 in
03:08 48.5 °F 47.7 °F 29.79 in ENE 4.9 mph 8.1 mph 97 % 0.00 in
03:13 48.4 °F 47.6 °F 29.78 in East 6.3 mph 10.4 mph 97 % 0.00 in
03:19 48.4 °F 47.6 °F 29.78 in ENE 3.5 mph 5.8 mph 97 % 0.00 in
03:24 48.3 °F 47.5 °F 29.78 in ENE 6.3 mph 9.2 mph 97 % 0.00 in
03:29 48.2 °F 47.4 °F 29.78 in ENE 7.0 mph 12.0 mph 97 % 0.00 in
03:34 48.1 °F 47.3 °F 29.78 in East 4.6 mph 6.9 mph 97 % 0.00 in
03:39 48.1 °F 47.6 °F 29.78 in East 6.1 mph 9.2 mph 98 % 0.00 in
03:44 48.1 °F 47.6 °F 29.78 in East 4.9 mph 8.1 mph 98 % 0.00 in
03:49 48.1 °F 47.6 °F 29.78 in East 4.3 mph 9.2 mph 98 % 0.00 in
03:54 48.2 °F 47.7 °F 29.78 in ENE 3.7 mph 9.2 mph 98 % 0.00 in
03:59 48.2 °F 47.7 °F 29.78 in East 6.1 mph 9.2 mph 98 % 0.00 in
04:04 48.2 °F 47.7 °F 29.78 in East 6.7 mph 8.1 mph 98 % 0.00 in
04:10 48.2 °F 47.7 °F 29.79 in East 6.4 mph 10.4 mph 98 % 0.00 in
04:15 48.3 °F 47.8 °F 29.79 in East 5.4 mph 7.0 mph 98 % 0.00 in
04:20 48.3 °F 47.8 °F 29.79 in ENE 5.0 mph 6.9 mph 98 % 0.00 in
04:25 48.3 °F 47.8 °F 29.79 in ENE 5.3 mph 7.0 mph 98 % 0.00 in
04:30 48.3 °F 47.8 °F 29.79 in East 5.6 mph 7.0 mph 98 % 0.00 in
04:40 48.4 °F 47.9 °F 29.78 in ENE 5.5 mph 8.1 mph 98 % 0.00 in
04:45 48.4 °F 47.9 °F 29.78 in East 5.7 mph 8.1 mph 98 % 0.00 in
04:55 48.4 °F 47.9 °F 29.78 in East 6.9 mph 8.1 mph 98 % 0.00 in
05:01 48.4 °F 47.9 °F 29.78 in East 6.6 mph 8.1 mph 98 % 0.00 in
05:06 48.4 °F 47.9 °F 29.78 in ENE 5.2 mph 7.0 mph 98 % 0.00 in
05:11 48.5 °F 48.0 °F 29.78 in East 4.4 mph 6.9 mph 98 % 0.00 in
05:16 48.5 °F 48.0 °F 29.78 in East 5.6 mph 6.9 mph 98 % 0.00 in
05:21 48.5 °F 48.0 °F 29.78 in East 5.6 mph 8.1 mph 98 % 0.00 in
05:26 48.5 °F 48.0 °F 29.78 in East 4.8 mph 6.0 mph 98 % 0.00 in
05:31 48.5 °F 48.0 °F 29.79 in East 5.9 mph 9.0 mph 98 % 0.00 in
05:36 48.5 °F 48.0 °F 29.79 in East 4.0 mph 5.8 mph 98 % 0.00 in
05:41 48.5 °F 48.0 °F 29.79 in ENE 3.5 mph 4.6 mph 98 % 0.00 in
05:46 48.5 °F 48.0 °F 29.79 in SE 4.2 mph 5.8 mph 98 % 0.00 in
05:57 48.5 °F 48.0 °F 29.79 in East 2.8 mph 5.0 mph 98 % 0.00 in
06:02 48.5 °F 48.0 °F 29.78 in East 4.0 mph 7.0 mph 98 % 0.00 in
06:07 48.5 °F 48.0 °F 29.78 in ENE 2.9 mph 5.8 mph 98 % 0.00 in
06:12 48.5 °F 48.0 °F 29.78 in ENE 4.4 mph 5.8 mph 98 % 0.00 in
06:17 48.6 °F 48.1 °F 29.78 in ENE 3.7 mph 4.6 mph 98 % 0.00 in
06:22 48.6 °F 48.1 °F 29.78 in ENE 3.2 mph 4.6 mph 98 % 0.00 in
06:27 48.6 °F 48.1 °F 29.78 in East 3.3 mph 5.8 mph 98 % 0.00 in
06:37 48.7 °F 48.2 °F 29.79 in NE 2.9 mph 5.8 mph 98 % 0.00 in
06:43 48.7 °F 48.2 °F 29.79 in ENE 3.2 mph 4.6 mph 98 % 0.00 in
06:48 48.8 °F 48.3 °F 29.79 in East 3.4 mph 6.0 mph 98 % 0.00 in
06:53 48.8 °F 48.3 °F 29.79 in ENE 2.8 mph 4.6 mph 98 % 0.00 in
06:58 48.9 °F 48.4 °F 29.79 in ENE 3.5 mph 6.9 mph 98 % 0.00 in
07:08 48.9 °F 48.4 °F 29.79 in ENE 5.3 mph 9.2 mph 98 % 0.00 in
07:13 49.0 °F 48.5 °F 29.79 in East 5.1 mph 7.0 mph 98 % 0.00 in
07:18 49.0 °F 48.5 °F 29.80 in East 6.8 mph 10.4 mph 98 % 0.00 in
07:23 49.0 °F 48.5 °F 29.80 in NE 6.7 mph 9.2 mph 98 % 0.00 in
07:34 49.1 °F 48.6 °F 29.79 in ENE 7.0 mph 9.2 mph 98 % 0.00 in
07:39 49.0 °F 48.5 °F 29.79 in ENE 8.8 mph 11.5 mph 98 % 0.00 in
07:44 49.0 °F 48.5 °F 29.79 in ENE 6.2 mph 11.5 mph 98 % 0.00 in
07:49 49.0 °F 48.5 °F 29.79 in East 6.8 mph 10.4 mph 98 % 0.00 in
07:54 49.1 °F 48.6 °F 29.79 in ENE 5.2 mph 8.1 mph 98 % 0.00 in
07:59 49.1 °F 48.6 °F 29.79 in ENE 7.4 mph 11.5 mph 98 % 0.00 in
08:04 49.1 °F 48.6 °F 29.79 in East 7.1 mph 10.4 mph 98 % 0.00 in
08:09 49.2 °F 48.7 °F 29.79 in ENE 3.9 mph 4.0 mph 98 % 0.00 in
08:14 49.2 °F 48.7 °F 29.79 in NE 5.4 mph 11.5 mph 98 % 0.00 in
08:19 49.2 °F 48.7 °F 29.79 in ENE 5.2 mph 10.4 mph 98 % 0.00 in
08:25 49.2 °F 48.7 °F 29.79 in ENE 5.8 mph 9.2 mph 98 % 0.00 in
08:30 49.2 °F 48.7 °F 29.79 in NE 6.9 mph 10.4 mph 98 % 0.00 in
08:35 49.2 °F 48.7 °F 29.79 in ENE 4.6 mph 8.1 mph 98 % 0.00 in
08:40 49.2 °F 48.7 °F 29.78 in ENE 5.8 mph 9.2 mph 98 % 0.00 in
08:45 49.2 °F 48.7 °F 29.78 in NE 8.6 mph 11.5 mph 98 % 0.00 in
08:50 49.2 °F 48.7 °F 29.78 in ENE 8.3 mph 10.4 mph 98 % 0.00 in
08:55 49.3 °F 48.8 °F 29.78 in ENE 6.5 mph 11.5 mph 98 % 0.00 in
09:00 49.5 °F 48.7 °F 29.79 in ENE 5.6 mph 11.0 mph 97 % 0.00 in
09:05 49.6 °F 48.8 °F 29.79 in ENE 5.7 mph 10.4 mph 97 % 0.00 in
09:10 49.8 °F 49.0 °F 29.78 in ENE 5.4 mph 11.5 mph 97 % 0.00 in
09:16 49.9 °F 49.1 °F 29.79 in ENE 3.8 mph 10.4 mph 97 % 0.00 in
09:21 49.9 °F 49.1 °F 29.79 in ENE 7.0 mph 9.2 mph 97 % 0.00 in
09:26 50.1 °F 49.3 °F 29.79 in ENE 2.5 mph 4.6 mph 97 % 0.00 in
09:31 50.1 °F 49.3 °F 29.78 in ENE 3.8 mph 4.6 mph 97 % 0.00 in
09:36 50.2 °F 49.1 °F 29.78 in ENE 6.3 mph 11.5 mph 96 % 0.00 in
09:41 50.2 °F 49.1 °F 29.78 in ENE 2.6 mph 9.2 mph 96 % 0.00 in
09:46 50.3 °F 49.2 °F 29.78 in ENE 2.3 mph 6.9 mph 96 % 0.00 in
09:51 50.3 °F 49.2 °F 29.78 in ENE 3.0 mph 6.9 mph 96 % 0.00 in
09:56 50.3 °F 49.2 °F 29.78 in ENE 5.2 mph 10.4 mph 96 % 0.00 in
10:01 50.2 °F 49.1 °F 29.78 in ENE 2.1 mph 6.9 mph 96 % 0.00 in
10:07 50.3 °F 49.2 °F 29.78 in East 2.4 mph 3.5 mph 96 % 0.00 in
10:12 50.4 °F 49.3 °F 29.78 in ENE 3.8 mph 8.1 mph 96 % 0.00 in
10:17 50.4 °F 49.3 °F 29.78 in ENE 3.6 mph 6.9 mph 96 % 0.00 in
10:22 50.5 °F 49.7 °F 29.78 in East 3.7 mph 5.0 mph 97 % 0.00 in
10:27 50.8 °F 50.0 °F 29.78 in ENE 2.4 mph 3.5 mph 97 % 0.00 in
10:32 50.9 °F 50.1 °F 29.78 in ENE 2.1 mph 3.5 mph 97 % 0.00 in
10:37 51.0 °F 50.2 °F 29.78 in ENE 2.4 mph 4.6 mph 97 % 0.00 in
10:42 51.1 °F 50.0 °F 29.78 in East 2.8 mph 5.0 mph 96 % 0.00 in
10:47 51.2 °F 50.1 °F 29.78 in ENE 4.0 mph 5.0 mph 96 % 0.00 in
10:52 51.3 °F 50.2 °F 29.78 in ENE 3.0 mph 3.5 mph 96 % 0.00 in
10:58 51.5 °F 50.4 °F 29.78 in ENE 2.8 mph 3.5 mph 96 % 0.00 in
11:03 51.7 °F 50.6 °F 29.78 in ENE 2.9 mph 4.6 mph 96 % 0.00 in
11:08 51.7 °F 50.3 °F 29.78 in NE 3.0 mph 8.1 mph 95 % 0.00 in
11:13 51.7 °F 50.3 °F 29.78 in NE 2.8 mph 4.6 mph 95 % 0.00 in
11:18 51.6 °F 49.9 °F 29.78 in ENE 3.9 mph 10.4 mph 94 % 0.00 in
11:23 51.6 °F 49.9 °F 29.78 in ENE 5.9 mph 8.1 mph 94 % 0.00 in
11:28 51.6 °F 49.9 °F 29.78 in ENE 4.2 mph 6.9 mph 94 % 0.00 in
11:33 51.5 °F 49.8 °F 29.78 in ENE 6.4 mph 10.4 mph 94 % 0.00 in
11:43 51.4 °F 49.7 °F 29.77 in ENE 4.5 mph 10.4 mph 94 % 0.00 in
11:49 51.3 °F 49.6 °F 29.77 in ENE 4.1 mph 9.0 mph 94 % 0.00 in
11:54 51.3 °F 49.6 °F 29.77 in ENE 3.8 mph 11.5 mph 94 % 0.00 in
11:59 51.2 °F 49.5 °F 29.77 in ENE 6.0 mph 8.1 mph 94 % 0.00 in
12:04 51.2 °F 49.5 °F 29.77 in ENE 5.4 mph 9.0 mph 94 % 0.00 in
12:09 51.2 °F 49.5 °F 29.77 in ENE 2.0 mph 5.0 mph 94 % 0.00 in
12:14 51.3 °F 49.9 °F 29.76 in ENE 3.0 mph 3.5 mph 95 % 0.00 in
12:19 51.4 °F 50.0 °F 29.76 in ENE 4.1 mph 9.2 mph 95 % 0.00 in
12:24 51.3 °F 49.9 °F 29.76 in ENE 3.5 mph 4.0 mph 95 % 0.00 in
12:29 51.2 °F 49.5 °F 29.76 in NE 5.0 mph 6.0 mph 94 % 0.00 in
12:34 51.1 °F 49.4 °F 29.76 in ENE 3.1 mph 4.6 mph 94 % 0.00 in
12:40 51.0 °F 49.3 °F 29.76 in ENE 3.0 mph 4.6 mph 94 % 0.00 in
12:45 50.9 °F 49.2 °F 29.76 in NE 1.2 mph 3.5 mph 94 % 0.00 in
12:50 50.8 °F 49.1 °F 29.76 in ENE 2.2 mph 3.5 mph 94 % 0.00 in
12:55 50.8 °F 49.1 °F 29.76 in ENE 1.2 mph 3.5 mph 94 % 0.00 in
13:00 51.0 °F 49.6 °F 29.76 in ENE 0.6 mph 2.3 mph 95 % 0.00 in
13:05 51.1 °F 49.7 °F 29.76 in ENE 0.5 mph 2.3 mph 95 % 0.00 in
13:10 51.2 °F 49.8 °F 29.76 in ENE 1.9 mph 3.5 mph 95 % 0.00 in
13:15 51.2 °F 49.8 °F 29.76 in ENE 1.4 mph 3.5 mph 95 % 0.00 in
13:20 51.2 °F 49.8 °F 29.76 in ENE 3.4 mph 4.6 mph 95 % 0.00 in
13:25 51.4 °F 50.0 °F 29.75 in ENE 1.7 mph 3.5 mph 95 % 0.00 in
13:31 51.7 °F 50.3 °F 29.75 in NE 2.4 mph 3.5 mph 95 % 0.00 in
13:36 52.0 °F 50.6 °F 29.75 in ENE 1.8 mph 2.3 mph 95 % 0.00 in
13:41 52.3 °F 50.9 °F 29.75 in East 1.7 mph 2.3 mph 95 % 0.00 in
13:46 52.5 °F 51.1 °F 29.75 in ENE 1.3 mph 2.3 mph 95 % 0.00 in
13:51 52.7 °F 51.3 °F 29.75 in ENE 2.0 mph 3.5 mph 95 % 0.00 in
13:56 52.7 °F 51.0 °F 29.75 in NE 3.1 mph 4.6 mph 94 % 0.00 in
14:01 52.5 °F 50.5 °F 29.75 in ENE 3.1 mph 6.9 mph 93 % 0.00 in
14:06 52.3 °F 50.3 °F 29.75 in ENE 1.2 mph 2.3 mph 93 % 0.00 in
14:11 52.2 °F 50.5 °F 29.75 in ENE 1.9 mph 3.5 mph 94 % 0.00 in
14:16 52.1 °F 50.4 °F 29.76 in ENE 3.3 mph 4.6 mph 94 % 0.00 in
14:22 52.0 °F 50.3 °F 29.75 in ENE 3.5 mph 5.0 mph 94 % 0.00 in
14:27 51.8 °F 50.1 °F 29.75 in ENE 2.3 mph 4.6 mph 94 % 0.00 in
14:32 51.8 °F 50.1 °F 29.75 in NE 1.9 mph 3.5 mph 94 % 0.00 in
14:37 51.7 °F 50.0 °F 29.75 in ENE 2.6 mph 3.5 mph 94 % 0.00 in
14:42 51.7 °F 50.0 °F 29.75 in ENE 2.9 mph 4.6 mph 94 % 0.00 in
14:47 51.6 °F 49.9 °F 29.75 in ENE 2.2 mph 3.5 mph 94 % 0.00 in
14:52 51.6 °F 50.2 °F 29.75 in NE 1.8 mph 4.6 mph 95 % 0.00 in
14:57 51.7 °F 50.3 °F 29.74 in ENE 2.4 mph 4.6 mph 95 % 0.00 in
15:02 51.8 °F 50.4 °F 29.74 in ENE 2.7 mph 3.5 mph 95 % 0.00 in
15:08 51.9 °F 50.5 °F 29.74 in ENE 0.4 mph 2.3 mph 95 % 0.00 in
15:13 52.1 °F 50.7 °F 29.74 in NNE 1.1 mph 5.0 mph 95 % 0.00 in
15:18 52.4 °F 51.0 °F 29.73 in NNE 1.7 mph 3.5 mph 95 % 0.00 in
15:28 52.8 °F 51.1 °F 29.73 in NE 1.5 mph 3.5 mph 94 % 0.00 in
15:33 53.2 °F 51.8 °F 29.72 in NNE 1.5 mph 3.5 mph 95 % 0.00 in
15:38 53.8 °F 52.1 °F 29.72 in NE 1.0 mph 3.5 mph 94 % 0.00 in
15:43 54.3 °F 52.3 °F 29.72 in ENE 3.0 mph 4.6 mph 93 % 0.00 in
15:48 54.3 °F 52.0 °F 29.72 in North 2.7 mph 4.6 mph 92 % 0.00 in
15:53 54.3 °F 51.4 °F 29.72 in ENE 2.9 mph 6.9 mph 90 % 0.00 in
15:59 54.4 °F 51.8 °F 29.72 in ENE 1.8 mph 3.5 mph 91 % 0.00 in
16:04 54.4 °F 51.8 °F 29.72 in ENE 0.2 mph 2.3 mph 91 % 0.00 in
16:09 54.5 °F 51.9 °F 29.72 in North 2.4 mph 3.5 mph 91 % 0.00 in
16:14 54.6 °F 52.0 °F 29.72 in NNE 0.7 mph 2.3 mph 91 % 0.00 in
16:19 54.6 °F 51.7 °F 29.72 in NNE 1.0 mph 3.5 mph 90 % 0.00 in
16:24 54.5 °F 51.6 °F 29.72 in NNE 0.4 mph 2.0 mph 90 % 0.00 in
16:29 54.3 °F 51.1 °F 29.72 in Calm   1.2 mph 89 % 0.01 in
16:34 54.1 °F 51.2 °F 29.72 in NNE 0.1 mph 1.2 mph 90 % 0.01 in
16:39 54.0 °F 51.1 °F 29.72 in Calm     90 % 0.01 in
16:50 53.9 °F 51.0 °F 29.72 in Calm   1.2 mph 90 % 0.01 in
16:55 53.9 °F 51.3 °F 29.72 in Calm     91 % 0.01 in
17:00 53.8 °F 51.2 °F 29.72 in Calm     91 % 0.01 in
17:05 53.7 °F 51.1 °F 29.72 in Calm   2.3 mph 91 % 0.01 in
17:10 53.7 °F 51.1 °F 29.72 in NNE 0.4 mph 2.0 mph 91 % 0.01 in
17:15 53.8 °F 51.2 °F 29.72 in NNE 1.7 mph 2.3 mph 91 % 0.01 in
17:20 53.7 °F 51.1 °F 29.72 in NNE 1.2 mph 2.0 mph 91 % 0.01 in
17:25 53.7 °F 51.1 °F 29.72 in Calm   1.2 mph 91 % 0.01 in
17:30 53.8 °F 51.2 °F 29.72 in Calm     91 % 0.00 in
17:35 53.9 °F 51.3 °F 29.72 in NNE 0.1 mph 1.2 mph 91 % 0.00 in
17:41 54.0 °F 51.4 °F 29.71 in NNE 0.8 mph 2.3 mph 91 % 0.00 in
17:46 54.1 °F 51.5 °F 29.71 in NNE 0.3 mph 3.5 mph 91 % 0.00 in
17:51 54.2 °F 51.6 °F 29.72 in NNE 2.3 mph 3.5 mph 91 % 0.00 in
17:56 54.3 °F 51.7 °F 29.72 in NNE 0.4 mph 2.0 mph 91 % 0.00 in
18:01 54.3 °F 51.7 °F 29.72 in NNE 0.7 mph 2.3 mph 91 % 0.00 in
18:06 54.4 °F 51.8 °F 29.72 in NNE 1.9 mph 3.5 mph 91 % 0.00 in
18:11 54.4 °F 51.5 °F 29.72 in NNE 1.2 mph 2.3 mph 90 % 0.00 in
18:16 54.2 °F 51.3 °F 29.71 in NNE 0.8 mph 2.3 mph 90 % 0.00 in
18:21 54.2 °F 51.3 °F 29.71 in Calm   2.3 mph 90 % 0.00 in
18:26 54.1 °F 51.2 °F 29.71 in NNE 0.9 mph 1.2 mph 90 % 0.00 in
18:32 53.9 °F 51.0 °F 29.71 in Calm     90 % 0.00 in
18:37 53.9 °F 51.3 °F 29.71 in Calm   1.2 mph 91 % 0.00 in
18:42 53.8 °F 51.2 °F 29.71 in NNE 1.2 mph 2.3 mph 91 % 0.00 in
18:47 53.8 °F 51.2 °F 29.71 in Calm     91 % 0.00 in
18:52 53.7 °F 51.1 °F 29.71 in NNE 0.3 mph 2.3 mph 91 % 0.00 in
19:02 53.6 °F 51.3 °F 29.71 in Calm     92 % 0.00 in
19:07 53.6 °F 51.3 °F 29.72 in Calm     92 % 0.00 in
19:12 53.6 °F 51.3 °F 29.71 in Calm     92 % 0.00 in
19:17 53.5 °F 51.2 °F 29.71 in Calm     92 % 0.00 in
19:23 53.4 °F 51.1 °F 29.71 in NNE 0.2 mph 2.3 mph 92 % 0.00 in
19:28 53.3 °F 50.7 °F 29.71 in Calm   1.2 mph 91 % 0.00 in
19:33 53.2 °F 50.6 °F 29.71 in Calm     91 % 0.00 in
19:38 53.1 °F 50.5 °F 29.71 in Calm   1.2 mph 91 % 0.00 in
19:43 53.0 °F 50.4 °F 29.71 in Calm     91 % 0.00 in
19:48 52.8 °F 50.2 °F 29.71 in Calm     91 % 0.00 in
19:53 52.6 °F 50.0 °F 29.71 in Calm     91 % 0.00 in
19:58 52.4 °F 49.8 °F 29.71 in Calm     91 % 0.00 in
20:03 52.3 °F 50.0 °F 29.71 in Calm     92 % 0.00 in
20:08 52.1 °F 49.8 °F 29.71 in Calm     92 % 0.00 in
20:14 52.1 °F 49.8 °F 29.71 in Calm     92 % 0.00 in
20:19 51.9 °F 49.6 °F 29.71 in Calm     92 % 0.00 in
20:24 51.8 °F 49.5 °F 29.71 in Calm     92 % 0.00 in
20:29 51.7 °F 49.7 °F 29.71 in Calm     93 % 0.00 in
20:34 51.7 °F 49.7 °F 29.71 in Calm     93 % 0.00 in
20:39 51.6 °F 49.6 °F 29.72 in Calm     93 % 0.00 in
20:44 51.5 °F 49.5 °F 29.71 in Calm     93 % 0.00 in
20:49 51.5 °F 49.5 °F 29.72 in Calm     93 % 0.00 in
20:54 51.4 °F 49.4 °F 29.71 in Calm     93 % 0.00 in
21:05 51.2 °F 49.2 °F 29.72 in Calm     93 % 0.00 in
21:10 51.1 °F 49.1 °F 29.72 in Calm   1.2 mph 93 % 0.00 in
21:15 51.1 °F 49.4 °F 29.72 in Calm     94 % 0.00 in
21:20 51.0 °F 49.3 °F 29.72 in Calm     94 % 0.00 in
21:25 50.9 °F 49.2 °F 29.72 in Calm   1.2 mph 94 % 0.00 in
21:30 50.9 °F 49.2 °F 29.72 in Calm     94 % 0.00 in
21:35 50.9 °F 49.2 °F 29.72 in Calm     94 % 0.00 in
21:40 50.8 °F 49.1 °F 29.72 in Calm     94 % 0.00 in
21:45 50.7 °F 49.0 °F 29.72 in Calm     94 % 0.00 in
21:50 50.6 °F 48.9 °F 29.72 in Calm     94 % 0.00 in
21:56 50.5 °F 48.8 °F 29.72 in Calm     94 % 0.00 in
22:01 50.4 °F 48.7 °F 29.72 in Calm     94 % 0.00 in
22:06 50.3 °F 48.6 °F 29.72 in Calm     94 % 0.00 in
22:11 50.1 °F 48.4 °F 29.72 in Calm     94 % 0.00 in
22:16 50.0 °F 48.3 °F 29.71 in Calm     94 % 0.00 in
22:21 49.9 °F 48.2 °F 29.71 in NNE 0.2 mph 1.0 mph 94 % 0.00 in
22:26 49.7 °F 48.0 °F 29.72 in NNE 0.8 mph 1.2 mph 94 % 0.00 in
22:31 49.6 °F 47.9 °F 29.72 in Calm     94 % 0.00 in
22:36 49.5 °F 47.8 °F 29.72 in NNE 0.1 mph 1.0 mph 94 % 0.00 in
22:41 49.4 °F 47.7 °F 29.72 in Calm   1.2 mph 94 % 0.00 in
22:47 49.3 °F 47.6 °F 29.72 in Calm   1.2 mph 94 % 0.00 in
22:52 49.2 °F 47.5 °F 29.72 in Calm     94 % 0.00 in
22:57 49.0 °F 47.6 °F 29.72 in NNE 0.2 mph 1.2 mph 95 % 0.00 in
23:02 49.0 °F 47.6 °F 29.72 in Calm     95 % 0.00 in
23:07 49.0 °F 47.6 °F 29.72 in Calm   1.2 mph 95 % 0.00 in
23:12 48.9 °F 47.5 °F 29.72 in Calm     95 % 0.00 in
23:17 48.9 °F 47.5 °F 29.72 in Calm     95 % 0.00 in
23:22 48.9 °F 47.5 °F 29.72 in Calm     95 % 0.00 in
23:27 48.8 °F 47.4 °F 29.72 in Calm     95 % 0.00 in
23:32 48.9 °F 47.8 °F 29.72 in Calm     96 % 0.00 in
23:38 49.0 °F 47.9 °F 29.71 in WNW 0.4 mph   96 % 0.00 in
23:43 49.1 °F 48.0 °F 29.71 in WNW 0.1 mph 1.2 mph 96 % 0.00 in
23:48 49.2 °F 48.1 °F 29.71 in Calm   1.0 mph 96 % 0.00 in
23:53 49.2 °F 48.1 °F 29.71 in South 1.5 mph 3.5 mph 96 % 0.00 in
23:58 49.2 °F 48.1 °F 29.71 in Calm   2.3 mph 96 % 0.00 in
Crab Meadow Weather
Compliments of Weather Underground - 2.75 mb

Script developed by  Jim McMurry - jmcmurry@mwt.net Adapted for the template by  Wim van der Kuil - Leuven-Template.eu

Extremes: A record low of - 128.6 degrees F was recorded at Vostok, Antarctica.